Time;durP1;ratioP1;P1;durP2;ratioP2;P2;SDS_P1;SDS_P2;PMS_P1;PMS_P2;Temp;Humidity;BMP_temperature;BMP_pressure;BME280_temperature;BME280_humidity;BME280_pressure;Samples;Min_cycle;Max_cycle;Signal;HPM_P1;HPM_P2
2022/08/30 00:01:28;;;;;;;;;;;;;;;17.24;80.70;102058.25;5115909;28;20020;-34
2022/08/30 00:03:57;;;;;;;5.47;2.97;;;;;;;17.12;83.81;102054.72;5114745;28;20023;-34
2022/08/30 00:06:23;;;;;;;6.53;2.95;;;;;;;17.06;84.05;102051.06;5115738;28;20118;-34
2022/08/30 00:08:49;;;;;;;6.65;3.20;;;;;;;17.14;83.99;102058.88;5114572;28;20122;-34
2022/08/30 00:11:15;;;;;;;;;;;;;;;17.21;81.97;102056.81;5115568;28;20471;-34
2022/08/30 00:13:43;;;;;;;5.43;2.92;;;;;;;17.13;84.25;102054.50;5114835;27;19918;-34
2022/08/30 00:16:11;;;;;;;7.53;3.03;;;;;;;17.08;84.22;102045.34;5114783;28;20471;-34
2022/08/30 00:18:37;;;;;;;6.80;3.15;;;;;;;16.96;84.87;102045.41;5114704;28;20084;-34
2022/08/30 00:21:02;;;;;;;;;;;;;;;17.05;82.51;102052.16;5115041;28;20053;-34
2022/08/30 00:23:28;;;;;;;6.10;2.95;;;;;;;16.88;84.97;102038.44;5115008;28;19972;-35
2022/08/30 00:25:53;;;;;;;;;;;;;;;17.02;82.44;102058.09;5115215;28;20024;-34
2022/08/30 00:28:18;;;;;;;7.07;3.10;;;;;;;16.87;85.26;102049.59;5114843;28;20343;-34
2022/08/30 00:30:45;;;;;;;;;;;;;;;16.99;82.55;102053.97;5114981;28;20269;-34
2022/08/30 00:33:12;;;;;;;6.90;3.17;;;;;;;16.90;85.41;102049.13;5114194;28;19915;-34
2022/08/30 00:35:38;;;;;;;8.20;3.38;;;;;;;16.80;86.11;102044.31;5114494;28;20047;-34
2022/08/30 00:38:05;;;;;;;7.18;3.53;;;;;;;16.72;85.69;102034.56;5114431;28;20073;-34
2022/08/30 00:40:30;;;;;;;6.97;2.70;;;;;;;16.81;85.86;102047.84;5114186;28;20038;-34
2022/08/30 00:42:57;;;;;;;;;;;;;;;16.93;83.06;102059.56;5115096;28;20035;-34
2022/08/30 00:45:29;;;;;;;5.20;3.42;;;;;;;16.79;85.52;102052.72;5114571;28;19943;-34
2022/08/30 00:47:55;;;;;;;7.22;3.47;;;;;;;16.49;87.07;102031.88;5114693;28;20070;-35
2022/08/30 00:50:22;;;;;;;;;;;;;;;16.85;83.84;102055.31;5114625;28;20110;-34
2022/08/30 00:52:52;;;;;;;5.90;2.80;;;;;;;16.69;87.02;102051.44;5113832;28;19908;-34
2022/08/30 00:55:19;;;;;;;8.65;3.75;;;;;;;16.71;86.54;102051.19;5114657;28;20054;-34
2022/08/30 00:57:50;;;;;;;5.38;3.00;;;;;;;16.72;86.66;102053.69;5113779;28;20027;-34
2022/08/30 01:00:16;;;;;;;6.25;3.38;;;;;;;16.62;87.34;102058.09;5114250;27;20089;-34
2022/08/30 01:02:42;;;;;;;6.43;3.17;;;;;;;16.65;86.94;102058.44;5113885;28;20055;-34
2022/08/30 01:05:12;;;;;;;;;;;;;;;16.78;84.41;102062.00;5114539;28;20486;-34
2022/08/30 01:07:38;;;;;;;;;;;;;;;16.78;83.93;102062.00;5115079;28;19931;-35
2022/08/30 01:10:04;;;;;;;;;;;;;;;16.79;83.88;102061.78;5114489;28;19915;-34
2022/08/30 01:12:29;;;;;;;;;;;;;;;16.80;83.00;102063.44;5114402;28;19922;-34
2022/08/30 01:14:55;;;;;;;;;;;;;;;16.84;83.01;102061.03;5113912;28;19930;-34
2022/08/30 01:17:21;;;;;;;;;;;;;;;16.86;82.49;102070.63;5114862;28;19907;-34
2022/08/30 01:19:48;;;;;;;;;;;;;;;16.89;82.63;102069.34;5114115;28;19912;-34
2022/08/30 01:22:31;;;;;;;;;;;;;;;16.89;82.49;102069.34;5114250;28;19918;-34
2022/08/30 01:24:58;;;;;;;;;;;;;;;16.89;82.86;102070.16;5114631;28;20333;-34
2022/08/30 01:27:24;;;;;;;;;;;;;;;16.87;82.53;102072.28;5114384;28;19919;-34
2022/08/30 01:29:50;;;;;;;;;;;;;;;16.86;84.45;102067.91;5113844;28;19935;-34
2022/08/30 01:32:20;;;;;;;;;;;;;;;16.82;83.50;102074.09;5113946;28;19912;-34
2022/08/30 01:34:47;;;;;;;;;;;;;;;16.80;83.53;102070.78;5114154;28;19915;-34
2022/08/30 01:37:14;;;;;;;;;;;;;;;16.81;83.13;102081.47;5113879;28;19923;-34
2022/08/30 01:39:39;;;;;;;;;;;;;;;16.79;85.47;102075.44;5114209;28;19998;-34
2022/08/30 01:42:04;;;;;;;;;;;;;;;16.77;83.78;102071.25;5114233;28;20010;-34
2022/08/30 01:44:30;;;;;;;;;;;;;;;16.75;84.41;102068.78;5114302;28;19911;-34
2022/08/30 01:46:55;;;;;;;;;;;;;;;16.75;83.68;102073.41;5113508;28;20028;-33
2022/08/30 01:49:20;;;;;;;;;;;;;;;16.74;84.08;102075.31;5113708;28;19919;-34
2022/08/30 01:51:45;;;;;;;;;;;;;;;16.67;85.83;102069.94;5114226;28;20279;-34
2022/08/30 01:54:11;;;;;;;;;;;;;;;16.64;84.11;102066.88;5117601;28;20268;-33
2022/08/30 01:56:36;;;;;;;;;;;;;;;16.62;83.99;102064.38;5117833;28;19938;-33
2022/08/30 01:59:02;;;;;;;;;;;;;;;16.62;83.66;102064.38;5117950;28;19922;-33
2022/08/30 02:01:28;;;;;;;;;;;;;;;16.59;83.86;102066.75;5118304;28;19912;-34
2022/08/30 02:03:54;;;;;;;;;;;;;;;16.57;83.27;102061.56;5118531;28;20351;-33
2022/08/30 02:06:21;;;;;;;;;;;;;;;16.55;83.66;102058.25;5117766;28;19951;-33
2022/08/30 02:08:46;;;;;;;;;;;;;;;16.52;84.74;102060.63;5117636;28;19911;-33
2022/08/30 02:11:12;;;;;;;;;;;;;;;16.47;84.65;102062.16;5116292;28;20362;-33
2022/08/30 02:13:39;;;;;;;;;;;;;;;16.45;84.65;102063.50;5117249;28;19923;-34
2022/08/30 02:16:05;;;;;;;;;;;;;;;16.41;84.60;102063.13;5117571;28;20003;-34
2022/08/30 02:18:31;;;;;;;;;;;;;;;16.39;84.71;102061.69;5117900;28;19911;-34
2022/08/30 02:20:57;;;;;;;;;;;;;;;16.39;84.10;102053.50;5117281;28;19923;-34
2022/08/30 02:23:22;;;;;;;;;;;;;;;16.34;85.72;102056.13;5117204;28;20302;-34
2022/08/30 02:25:47;;;;;;;;;;;;;;;16.32;84.48;102056.38;5117349;28;19911;-34
2022/08/30 02:28:14;;;;;;;;;;;;;;;16.33;84.18;102054.47;5117321;28;19916;-34
2022/08/30 02:30:40;;;;;;;;;;;;;;;16.31;83.90;102056.63;5117483;28;19919;-34
2022/08/30 02:33:05;;;;;;;;;;;;;;;16.33;83.30;102057.22;5117221;28;19912;-34
2022/08/30 02:35:30;;;;;;;;;;;;;;;16.25;84.85;102058.44;5117341;28;19915;-34
2022/08/30 02:37:56;;;;;;;;;;;;;;;16.25;84.18;102057.56;5117488;28;19923;-34
2022/08/30 02:40:21;;;;;;;;;;;;;;;16.22;85.42;102058.91;5117034;28;20377;-34
2022/08/30 02:42:47;;;;;;;;;;;;;;;16.17;86.72;102048.69;5116783;28;20406;-34
2022/08/30 02:45:14;;;;;;;;;;;;;;;16.14;87.50;102046.44;5116763;28;19916;-33
2022/08/30 02:47:39;;;;;;;;;;;;;;;16.12;85.47;102048.59;5117804;28;19916;-33
2022/08/30 02:50:05;;;;;;;;;;;;;;;16.17;84.60;102050.59;5116941;28;19942;-34
2022/08/30 02:52:30;;;;;;;;;;;;;;;16.17;85.24;102051.41;5116588;28;19920;-34
2022/08/30 02:54:56;;;;;;;;;;;;;;;16.15;86.80;102050.00;5116578;28;20375;-35
2022/08/30 02:57:21;;;;;;;;;;;;;;;16.16;85.27;102057.97;5116480;28;20010;-34
2022/08/30 02:59:47;;;;;;;;;;;;;;;16.15;86.33;102050.00;5117158;28;19923;-34
2022/08/30 03:02:12;;;;;;;;;;;;;;;16.12;85.74;102040.41;5116605;28;19915;-34
2022/08/30 03:04:38;;;;;;;;;;;;;;;16.12;85.60;102034.94;5116162;28;19911;-34
2022/08/30 03:07:03;;;;;;;;;;;;;;;16.05;88.98;102030.66;5116325;28;19915;-34
2022/08/30 03:09:29;;;;;;;;;;;;;;;16.05;87.01;102023.31;5117037;28;19964;-34
2022/08/30 03:11:54;;;;;;;;;;;;;;;16.03;87.67;102030.09;5116690;28;20364;-34
2022/08/30 03:14:19;;;;;;;;;;;;;;;15.98;87.17;102021.78;5116660;28;19957;-34
2022/08/30 03:16:44;;;;;;;;;;;;;;;15.94;86.62;102030.44;5116892;28;19911;-34
2022/08/30 03:19:09;;;;;;;;;;;;;;;15.98;85.82;102033.53;5114881;28;19918;-34
2022/08/30 03:21:35;;;;;;;;;;;;;;;15.99;87.06;102034.34;5116569;28;20305;-34
2022/08/30 03:24:01;;;;;;;;;;;;;;;15.99;85.99;102037.06;5115929;28;20010;-34
2022/08/30 03:26:26;;;;;;;;;;;;;;;15.95;86.86;102034.00;5116754;28;20420;-34
2022/08/30 03:28:52;;;;;;;;;;;;;;;15.93;88.34;102036.13;5116462;28;19927;-34
2022/08/30 03:31:17;;;;;;;;;;;;;;;15.91;85.90;102033.66;5116785;28;19912;-34
2022/08/30 03:33:42;;;;;;;;;;;;;;;15.93;86.26;102034.22;5116051;28;19916;-34
2022/08/30 03:36:08;;;;;;;;;;;;;;;15.95;87.07;102045.72;5116489;28;19912;-34
2022/08/30 03:38:33;;;;;;;;;;;;;;;15.92;86.76;102035.31;5116051;28;19984;-34
2022/08/30 03:40:58;;;;;;;;;;;;;;;15.91;87.89;102038.28;5115769;28;19918;-34
2022/08/30 03:43:24;;;;;;;;;;;;;;;15.86;87.93;102040.88;5116157;28;19947;-34
2022/08/30 03:45:49;;;;;;;;;;;;;;;15.88;87.15;102044.22;5115544;28;19962;-34
2022/08/30 03:48:14;;;;;;;;;;;;;;;15.84;87.23;102037.56;5115487;28;19918;-34
2022/08/30 03:50:39;;;;;;;;;;;;;;;15.83;87.40;102039.47;5115938;28;19918;-34
2022/08/30 03:53:05;;;;;;;;;;;;;;;15.82;87.41;102042.44;5116244;28;20403;-34
2022/08/30 03:55:30;;;;;;;;;;;;;;;15.82;86.56;102043.25;5115611;28;19956;-35
2022/08/30 03:57:56;;;;;;;;;;;;;;;15.82;87.50;102035.06;5115625;28;20286;-34
2022/08/30 04:00:21;;;;;;;;;;;;;;;15.83;86.44;102030.44;5115090;28;19977;-34
2022/08/30 04:02:46;;;;;;;;;;;;;;;15.83;88.13;102033.19;5116020;28;19918;-34
2022/08/30 04:05:12;;;;;;;;;;;;;;;15.80;87.11;102031.75;5115438;28;20009;-34
2022/08/30 04:07:37;;;;;;;;;;;;;;;15.81;86.91;102043.47;5116127;28;19918;-34
2022/08/30 04:10:03;;;;;;;;;;;;;;;15.81;86.19;102033.44;5115621;28;19968;-34
2022/08/30 04:12:29;;;;;;;;;;;;;;;15.78;88.43;102035.78;5115559;28;19956;-34
2022/08/30 04:14:54;;;;;;;;;;;;;;;15.76;87.70;102032.44;5114375;28;20006;-34
2022/08/30 04:17:19;;;;;;;;;;;;;;;15.75;87.84;102041.69;5114252;28;20342;-34
2022/08/30 04:19:45;;;;;;;;;;;;;;;15.69;89.32;102048.94;5114949;28;19934;-34
2022/08/30 04:22:10;;;;;;;;;;;;;;;15.65;90.20;102043.13;5115840;28;20049;-34
2022/08/30 04:24:37;;;;;;;;;;;;;;;15.65;88.58;102048.56;5115238;28;19915;-34
2022/08/30 04:27:02;;;;;;;;;;;;;;;15.65;88.27;102043.13;5114988;28;19996;-34
2022/08/30 04:29:27;;;;;;;;;;;;;;;15.67;87.75;102042.91;5114040;28;20375;-34
2022/08/30 04:31:53;;;;;;;;;;;;;;;15.68;88.29;102052.72;5114895;28;19919;-34
2022/08/30 04:34:18;;;;;;;;;;;;;;;15.64;88.47;102040.63;5115532;28;19918;-34
2022/08/30 04:36:43;;;;;;;;;;;;;;;15.62;88.86;102048.19;5115128;28;19919;-34
2022/08/30 04:39:08;;;;;;;;;;;;;;;15.59;88.91;102048.66;5115260;28;20018;-33
2022/08/30 04:41:34;;;;;;;;;;;;;;;15.58;87.45;102047.84;5114690;28;19969;-34
2022/08/30 04:44:01;;;;;;;;;;;;;;;15.56;88.31;102044.50;5115102;28;19916;-34
2022/08/30 04:46:27;;;;;;;;;;;;;;;15.56;90.20;102043.66;5114597;28;19911;-35
2022/08/30 04:48:52;;;;;;;;;;;;;;;15.45;91.58;102054.31;5114276;28;19969;-34
2022/08/30 04:51:17;;;;;;;;;;;;;;;15.41;90.81;102052.28;5114737;28;19918;-34
2022/08/30 04:53:43;;;;;;;;;;;;;;;15.37;91.83;102053.81;5114486;28;19915;-34
2022/08/30 04:56:15;;;;;;;;;;;;;;;15.34;90.72;102051.56;5114678;28;19938;-34
2022/08/30 04:58:40;;;;;;;;;;;;;;;15.40;89.86;102067.00;5114388;28;19927;-34
2022/08/30 05:01:10;;;;;;;;;;;;;;;15.45;89.62;102069.84;5114044;28;19911;-34
2022/08/30 05:03:36;;;;;;;;;;;;;;;15.46;90.83;102074.22;5114367;28;19965;-34
2022/08/30 05:06:02;;;;;;;;;;;;;;;15.48;89.37;102069.38;5114303;28;19915;-34
2022/08/30 05:08:27;;;;;;;;;;;;;;;15.49;89.99;102067.50;5114326;28;19912;-34
2022/08/30 05:10:52;;;;;;;;;;;;;;;15.49;89.88;102064.75;5114355;28;19915;-34
2022/08/30 05:13:18;;;;;;;;;;;;;;;15.49;90.27;102070.22;5114831;28;19965;-34
2022/08/30 05:15:43;;;;;;;;;;;;;;;15.48;89.97;102066.66;5114720;28;19918;-34
2022/08/30 05:18:09;;;;;;;;;;;;;;;15.49;88.90;102071.03;5114014;28;19994;-34
2022/08/30 05:20:35;;;;;;;;;;;;;;;15.48;90.25;102069.38;5113792;28;20355;-34
2022/08/30 05:23:00;;;;;;;;;;;;;;;15.49;89.14;102075.66;5113853;28;19911;-34
2022/08/30 05:25:27;;;;;;;;;;;;;;;15.48;89.44;102076.75;5113793;28;20280;-33
2022/08/30 05:27:52;;;;;;;;;;;;;;;15.43;91.81;102074.72;5114177;28;20010;-34
2022/08/30 05:30:18;;;;;;;;;;;;;;;15.38;90.90;102080.03;5114701;28;20404;-34
2022/08/30 05:32:44;;;;;;;;;;;;;;;15.39;92.34;102078.97;5114165;28;19916;-34
2022/08/30 05:35:10;;;;;;;;;;;;;;;15.39;91.23;102081.69;5114069;28;19912;-35
2022/08/30 05:37:35;;;;;;;;;;;;;;;15.41;90.39;102083.09;5113499;28;20357;-34
2022/08/30 05:40:01;;;;;;;;;;;;;;;15.46;91.27;102087.84;5114065;28;19943;-34
2022/08/30 05:42:26;;;;;;;;;;;;;;;15.46;92.81;102085.13;5112430;28;20010;-34
2022/08/30 05:44:52;;;;;;;;;;;;;;;15.48;91.06;102091.19;5113773;28;19912;-34
2022/08/30 05:47:17;;;;;;;;;;;;;;;15.51;91.24;102096.16;5113886;28;19969;-34
2022/08/30 05:49:43;;;;;;;;;;;;;;;15.54;92.09;102094.88;5114036;28;19912;-34
2022/08/30 05:52:08;;;;;;;;;;;;;;;15.59;91.97;102092.28;5114157;28;19918;-34
2022/08/30 05:54:33;;;;;;;;;;;;;;;15.63;92.16;102088.88;5113998;28;20010;-35
2022/08/30 05:56:58;;;;;;;;;;;;;;;15.65;91.95;102092.19;5113501;28;19999;-34
2022/08/30 05:59:23;;;;;;;;;;;;;;;15.65;92.42;102089.47;5113895;28;19919;-35
2022/08/30 06:01:49;;;;;;;;;;;;;;;15.64;92.08;102090.53;5113360;28;20292;-34
2022/08/30 06:04:14;;;;;;;;;;;;;;;15.61;92.80;102090.97;5113633;28;20472;-34
2022/08/30 06:06:41;;;;;;;;;;;;;;;15.67;91.67;102090.09;5113951;28;20296;-35
2022/08/30 06:09:06;;;;;;;;;;;;;;;15.75;91.30;102096.25;5113287;28;20294;-35
2022/08/30 06:11:32;;;;;;;;;;;;;;;15.77;92.50;102085.94;5114147;28;19920;-34
2022/08/30 06:13:57;;;;;;;;;;;;;;;15.79;91.04;102087.34;5113319;28;20006;-35
2022/08/30 06:16:25;;;;;;;;;;;;;;;15.82;91.22;102088.78;5113665;28;19918;-34
2022/08/30 06:18:51;;;;;;;;;;;;;;;15.87;91.14;102089.75;5113837;28;19912;-35
2022/08/30 06:21:16;;;;;;;;;;;;;;;15.94;90.43;102089.63;5113508;28;20227;-34
2022/08/30 06:23:41;;;;;;;;;;;;;;;16.04;90.91;102080.84;5113195;28;19911;-35
2022/08/30 06:26:07;;;;;;;;;;;;;;;16.12;90.66;102086.78;5114019;28;19947;-35
2022/08/30 06:28:32;;;;;;;;;;;;;;;16.18;90.69;102083.09;5113687;28;19968;-35
2022/08/30 06:30:57;;;;;;;;;;;;;;;16.26;90.48;102086.53;5113366;28;19916;-35
2022/08/30 06:33:23;;;;;;;;;;;;;;;16.30;90.56;102088.56;5113468;28;19957;-35
2022/08/30 06:35:48;;;;;;;;;;;;;;;16.33;89.91;102088.06;5113418;28;19912;-34
2022/08/30 06:38:13;;;;;;;;;;;;;;;16.35;89.90;102082.38;5114684;28;19963;-34
2022/08/30 06:40:38;;;;;;;;;;;;;;;16.40;90.00;102079.78;5117358;28;20007;-35
2022/08/30 06:43:04;;;;;;;;;;;;;;;16.42;89.67;102080.34;5117959;28;20327;-34
2022/08/30 06:45:29;;;;;;;;;;;;;;;16.52;89.73;102088.75;5117357;28;19912;-34
2022/08/30 06:47:55;;;;;;;;;;;;;;;16.61;88.82;102083.75;5117109;28;20358;-34
2022/08/30 06:50:20;;;;;;;;;;;;;;;16.62;88.87;102080.78;5117567;28;19912;-34
2022/08/30 06:52:46;;;;;;;;;;;;;;;16.64;89.33;102078.66;5117880;28;20312;-34
2022/08/30 06:55:12;;;;;;;;;;;;;;;16.67;88.72;102080.88;5116899;28;19911;-34
2022/08/30 06:57:38;;;;;;;;;;;;;;;16.72;88.39;102077.44;5117021;28;19955;-34
2022/08/30 07:00:05;;;;;;;;;;;;;;;16.78;88.04;102078.38;5117346;28;19994;-34
2022/08/30 07:02:30;;;;;;;;;;;;;;;16.85;87.92;102079.91;5117479;28;19916;-33
2022/08/30 07:04:55;;;;;;;;;;;;;;;16.89;87.96;102083.00;5116706;28;20283;-34
2022/08/30 07:07:21;;;;;;;;;;;;;;;16.86;87.68;102083.47;5116953;28;20359;-34
2022/08/30 07:09:47;;;;;;;;;;;;;;;16.82;86.97;102090.50;5116758;28;20011;-34
2022/08/30 07:12:13;;;;;;;;;;;;;;;16.83;87.68;102081.22;5116669;28;19915;-34
2022/08/30 07:14:38;;;;;;;;;;;;;;;16.92;87.33;102090.69;5116633;28;19959;-34
2022/08/30 07:18:49;;;;;;;;;;;;;;;17.02;87.57;102085.41;5117379;28;19918;-34
2022/08/30 07:19:52;;;;;;;;;;;;;;;17.15;86.88;102093.34;5116219;28;19915;-34
2022/08/30 07:22:17;;;;;;;;;;;;;;;17.24;86.63;102089.13;5116894;28;20347;-34
2022/08/30 07:24:43;;;;;;;;;;;;;;;17.36;86.04;102083.59;5116574;28;19911;-34
2022/08/30 07:27:08;;;;;;;;;;;;;;;17.47;85.41;102090.91;5116304;28;20002;-34
2022/08/30 07:29:33;;;;;;;;;;;;;;;17.55;84.64;102097.03;5115909;28;19913;-34
2022/08/30 07:31:58;;;;;;;;;;;;;;;17.58;84.62;102093.81;5116462;28;19945;-34
2022/08/30 07:34:24;;;;;;;;;;;;;;;17.56;83.99;102096.78;5116252;28;19911;-34
2022/08/30 07:36:49;;;;;;;;;;;;;;;17.61;84.00;102096.03;5116988;28;19912;-34
2022/08/30 07:39:14;;;;;;;;;;;;;;;17.63;83.86;102100.22;5116094;28;19965;-34
2022/08/30 07:41:39;;;;;;;;;;;;;;;17.73;84.34;102094.94;5116479;28;19915;-34
2022/08/30 07:44:07;;;;;;;;;;;;;;;17.85;83.76;102094.00;5116141;28;19934;-34
2022/08/30 07:46:33;;;;;;;;;;;;;;;17.98;83.32;102096.41;5115259;28;20362;-34
2022/08/30 07:48:59;;;;;;;;;;;;;;;18.07;82.12;102097.66;5115427;28;19912;-34
2022/08/30 07:51:25;;;;;;;;;;;;;;;18.16;82.32;102101.63;5114626;28;20328;-34
2022/08/30 07:53:51;;;;;;;;;;;;;;;18.21;81.13;102092.66;5115512;28;19916;-35
2022/08/30 07:56:16;;;;;;;;;;;;;;;18.27;80.14;102102.59;5116283;28;19919;-34
2022/08/30 07:58:41;;;;;;;;;;;;;;;18.36;80.23;102100.25;5115718;28;19919;-34
2022/08/30 08:01:08;;;;;;;;;;;;;;;18.43;78.96;102101.72;5115307;28;19955;-34
2022/08/30 08:03:34;;;;;;;;;;;;;;;18.49;78.98;102094.41;5116280;28;19958;-34
2022/08/30 08:06:00;;;;;;;;;;;;;;;18.59;78.44;102105.47;5115969;27;19957;-34
2022/08/30 08:08:26;;;;;;;;;;;;;;;18.69;78.26;102102.09;5116397;28;20411;-34
2022/08/30 08:10:51;;;;;;;;;;;;;;;18.73;77.17;102101.31;5115733;28;19954;-34
2022/08/30 08:13:16;;;;;;;;;;;;;;;18.80;77.99;102100.31;5115763;28;20008;-34
2022/08/30 08:15:41;;;;;;;;;;;;;;;18.85;76.24;102100.38;5115177;28;19922;-34
2022/08/30 08:18:07;;;;;;;;;;;;;;;18.89;76.87;102096.03;5115252;28;19912;-35
2022/08/30 08:20:33;;;;;;;;;;;;;;;18.91;75.06;102102.09;5115304;28;19920;-34
2022/08/30 08:22:58;;;;;;;;;;;;;;;18.95;74.78;102103.22;5115276;28;19988;-34
2022/08/30 08:25:23;;;;;;;;;;;;;;;19.03;74.58;102100.88;5114840;28;19912;-34
2022/08/30 08:27:50;;;;;;;;;;;;;;;19.10;74.80;102095.19;5115948;28;19911;-34
2022/08/30 08:30:16;;;;;;;;;;;;;;;19.20;73.43;102100.78;5114823;28;19952;-34
2022/08/30 08:32:42;;;;;;;;;;;;;;;19.24;72.28;102101.09;5115526;28;20004;-34
2022/08/30 08:35:07;;;;;;;;;;;;;;;19.29;71.66;102110.19;5115052;28;19911;-34
2022/08/30 08:37:32;;;;;;;;;;;;;;;19.41;73.13;102106.44;5115501;28;19937;-34
2022/08/30 08:39:57;;;;;;;;;;;;;;;19.55;72.74;102103.03;5114672;28;20383;-34
2022/08/30 08:42:35;;;;;;;;;;;;;;;19.66;72.15;102098.47;5114614;28;19943;-34
2022/08/30 08:45:07;;;;;;;;;;;;;;;19.74;71.44;102100.75;5114787;28;19918;-35
2022/08/30 08:47:32;;;;;;;;;;;;;;;19.74;70.65;102108.16;5115501;28;19923;-34
2022/08/30 08:50:00;;;;;;;;;;;;;;;19.79;72.14;102109.03;5114689;28;19911;-35
2022/08/30 08:55:20;;;;;;;;;;;;;;;19.86;70.50;102110.72;5114716;28;20443;-34
2022/08/30 08:57:45;;;;;;;;;;;;;;;19.94;69.41;102115.72;5114811;28;20058;-34
2022/08/30 09:00:12;;;;;;;;;;;;;;;19.97;68.97;102110.53;5115610;28;19916;-34
2022/08/30 09:02:45;;;;;;;;;;;;;;;20.01;69.38;102116.34;5114373;27;19964;-34
2022/08/30 09:05:13;;;;;;;;;;;;;;;20.08;69.85;102116.94;5114413;28;19912;-34
2022/08/30 09:07:41;;;;;;;;;;;;;;;20.22;69.55;102117.28;5114182;28;19918;-34
2022/08/30 09:10:06;;;;;;;;;;;;;;;20.38;68.91;102115.47;5115045;28;19962;-34
2022/08/30 09:12:31;;;;;;;;;;;;;;;20.41;67.18;102123.19;5114374;28;19952;-35
2022/08/30 09:15:08;;;;;;;;;;;;;;;20.46;68.15;102110.28;5114300;28;19916;-35
2022/08/30 09:17:47;;;;;;;;;;;;;;;20.65;67.64;102115.38;5115029;28;20251;-34
2022/08/30 09:20:22;;;;;;;;;;;;;;;20.72;65.62;102111.25;5114247;28;19915;-34
2022/08/30 09:22:47;;;;;;;;;;;;;;;20.86;65.80;102108.03;5114117;28;19911;-34
2022/08/30 09:25:13;;;;;;;;;;;;;;;20.93;64.66;102103.91;5114433;28;20339;-34
2022/08/30 09:27:39;;;;;;;;;;;;;;;21.04;64.89;102107.53;5114646;28;19957;-34
2022/08/30 09:30:05;;;;;;;;;;;;;;;21.08;62.91;102111.38;5114174;28;19912;-34
2022/08/30 09:32:31;;;;;;;;;;;;;;;21.08;63.57;102120.47;5114106;28;20374;-34
2022/08/30 09:34:57;;;;;;;;;;;;;;;20.96;62.47;102117.13;5114712;28;19980;-35
2022/08/30 09:37:25;;;;;;;;;;;;;;;20.99;63.69;102113.03;5113956;28;19923;-35
2022/08/30 09:39:50;;;;;;;;;;;;;;;21.07;64.40;102113.31;5114489;28;19912;-34
2022/08/30 09:42:19;;;;;;;;;;;;;;;21.13;62.62;102119.69;5114099;28;19922;-34
2022/08/30 09:44:44;;;;;;;;;;;;;;;21.00;62.16;102120.19;5113510;28;19911;-34
2022/08/30 09:47:20;;;;;;;;;;;;;;;21.08;62.67;102112.22;5114393;28;19918;-34
2022/08/30 09:49:46;;;;;;;;;;;;;;;21.18;61.67;102111.44;5113532;28;20331;-35
2022/08/30 09:52:30;;;;;;;;;;;;;;;21.37;61.58;102105.44;5113993;28;19912;-34
2022/08/30 09:54:58;;;;;;;;;;;;;;;21.58;61.65;102105.19;5113802;28;19912;-35
2022/08/30 09:57:41;;;;;;;;;;;;;;;21.73;61.01;102109.03;5113975;28;19916;-35
2022/08/30 10:00:13;;;;;;;;;;;;;;;21.85;60.86;102102.13;5114929;28;19962;-35
2022/08/30 10:02:43;;;;;;;;;;;;;;;21.95;59.83;102104.06;5113983;28;20392;-35
2022/08/30 10:05:21;;;;;;;;;;;;;;;22.02;59.89;102109.31;5114111;28;19916;-34
2022/08/30 10:07:54;;;;;;;;;;;;;;;22.04;59.76;102109.84;5113344;28;19911;-34
2022/08/30 10:10:39;;;;;;;;;;;;;;;22.00;59.18;102114.25;5114290;28;19934;-34
2022/08/30 10:13:28;;;;;;;;;;;;;;;21.88;58.93;102109.03;5115061;28;20335;-34
2022/08/30 10:16:00;;;;;;;;;;;;;;;21.91;60.81;102111.25;5118071;28;20274;-34
2022/08/30 10:18:44;;;;;;;;;;;;;;;21.76;58.50;102109.28;5117944;28;20291;-34
2022/08/30 10:21:24;;;;;;;;;;;;;;;21.76;58.64;102111.22;5117233;28;19916;-34
2022/08/30 10:23:49;;;;;;;;;;;;;;;21.80;58.48;102110.41;5116887;28;19919;-34
2022/08/30 10:26:26;;;;;;;;;;;;;;;21.95;59.35;102111.50;5117531;28;20290;-34
2022/08/30 10:28:55;;;;;;;;;;;;;;;22.20;58.83;102110.66;5117509;28;19947;-35
2022/08/30 10:31:26;;;;;;;;;;;;;;;22.34;57.90;102098.78;5117460;28;20002;-35
2022/08/30 10:33:54;;;;;;;;;;;;;;;22.54;56.32;102097.88;5116328;28;20282;-35
2022/08/30 10:36:22;;;;;;;;;;;;;;;22.75;56.76;102101.41;5117270;28;19933;-35
2022/08/30 10:38:49;;;;;;;;;;;;;;;22.87;56.22;102095.53;5117651;28;19911;-35
2022/08/30 10:41:31;;;;;;;;;;;;;;;22.97;54.40;102094.69;5117202;28;19915;-35
2022/08/30 10:43:59;;;;;;;;;;;;;;;22.84;54.04;102099.72;5117679;28;20316;-35
2022/08/30 10:46:30;;;;;;;;;;;;;;;22.94;54.35;102092.53;5117773;28;19912;-35
2022/08/30 10:48:57;;;;;;;;;;;;;;;22.95;52.92;102088.66;5117142;28;19967;-35
2022/08/30 10:51:28;;;;;;;;;;;;;;;22.98;54.67;102096.34;5116907;28;20026;-35
2022/08/30 10:53:57;;;;;;;;;;;;;;;23.05;54.10;102091.34;5117002;28;19972;-35
2022/08/30 10:56:25;;;;;;;;;;;;;;;23.04;52.76;102092.47;5117772;28;19922;-35
2022/08/30 10:58:53;;;;;;;;;;;;;;;23.16;54.01;102081.06;5116982;28;19919;-35
2022/08/30 11:01:28;;;;;;;;;;;;;;;23.38;52.93;102090.56;5116955;27;20018;-35
2022/08/30 11:03:54;;;;;;;;;;;;;;;23.45;51.35;102081.13;5116914;28;19916;-35
2022/08/30 11:06:38;;;;;;;;;;;;;;;23.59;53.28;102085.72;5117067;28;20347;-35
2022/08/30 11:09:09;;;;;;;;;;;;;;;23.70;51.99;102080.94;5116372;28;19911;-35
2022/08/30 11:11:43;;;;;;;;;;;;;;;23.77;51.65;102084.22;5116463;28;20027;-35
2022/08/30 11:14:11;;;;;;;;;;;;;;;23.94;51.77;102071.91;5116826;28;19950;-35
2022/08/30 11:16:38;;;;;;;;;;;;;;;24.01;50.82;102081.50;5117355;28;19919;-35
2022/08/30 11:19:12;;;;;;;;;;;;;;;24.12;50.63;102068.41;5116918;28;19939;-35
2022/08/30 11:21:39;;;;;;;;;;;;;;;24.02;50.19;102074.03;5116737;28;19919;-35
2022/08/30 11:24:05;;;;;;;;;;;;;;;23.89;51.23;102072.78;5115828;28;19954;-35
2022/08/30 11:26:48;;;;;;;;;;;;;;;23.80;51.10;102075.34;5117265;28;19973;-35
2022/08/30 11:29:29;;;;;;;;;;;;;;;23.64;50.49;102071.06;5116316;28;19916;-35
2022/08/30 11:31:58;;;;;;;;;;;;;;;23.63;49.92;102075.78;5116876;28;19966;-35
2022/08/30 11:34:42;;;;;;;;;;;;;;;23.80;50.83;102071.75;5116304;28;19911;-36
2022/08/30 11:37:07;;;;;;;;;;;;;;;23.86;50.39;102076.09;5116528;28;19911;-35
2022/08/30 11:39:41;;;;;;;;;;;;;;;23.92;49.60;102068.63;5115884;28;20012;-35
2022/08/30 11:42:23;;;;;;;;;;;;;;;23.92;48.87;102065.84;5116004;28;19919;-35
2022/08/30 11:44:48;;;;;;;;;;;;;;;24.04;49.85;102063.50;5116490;28;19918;-35
2022/08/30 11:47:32;;;;;;;;;;;;;;;24.07;50.06;102063.75;5116508;28;20010;-35
2022/08/30 11:50:03;;;;;;;;;;;;;;;24.17;48.79;102057.28;5115691;28;19911;-35
2022/08/30 11:52:45;;;;;;;;;;;;;;;24.18;48.99;102058.94;5115689;28;19947;-35
2022/08/30 11:55:17;;;;;;;;;;;;;;;24.09;48.07;102055.16;5116008;28;20386;-35
2022/08/30 11:58:07;;;;;;;;;;;;;;;24.18;49.11;102058.94;5116289;28;19916;-35
2022/08/30 12:00:35;;;;;;;;;;;;;;;24.22;49.55;102056.41;5116651;28;19919;-35
2022/08/30 12:03:15;;;;;;;;;;;;;;;24.26;48.46;102050.00;5115992;28;19915;-35
2022/08/30 12:05:44;;;;;;;;;;;;;;;24.35;49.28;102041.84;5116186;28;19986;-35
2022/08/30 12:08:18;;;;;;;;;;;;;;;24.36;47.98;102043.56;5115619;28;20354;-35
2022/08/30 12:10:48;;;;;;;;;;;;;;;24.28;48.17;102045.00;5115358;28;19965;-35
2022/08/30 12:13:32;;;;;;;;;;;;;;;24.26;47.79;102041.72;5115698;28;20056;-35
2022/08/30 12:16:03;;;;;;;;;;;;;;;24.45;48.48;102038.19;5116272;28;20347;-35
2022/08/30 12:18:37;;;;;;;;;;;;;;;24.52;46.65;102041.41;5115155;28;19911;-35
2022/08/30 12:21:08;;;;;;;;;;;;;;;24.62;45.56;102042.09;5115583;28;20014;-35
2022/08/30 12:23:38;;;;;;;;;;;;;;;24.72;45.67;102049.44;5115681;28;19926;-35
2022/08/30 12:26:29;;;;;;;;;;;;;;;24.63;45.63;102032.69;5114673;28;20351;-35
2022/08/30 12:29:06;;;;;;;;;;;;;;;24.66;45.96;102031.28;5115766;28;19934;-35
2022/08/30 12:31:32;;;;;;;;;;;;;;;24.52;44.37;102030.38;5115070;28;19911;-35
2022/08/30 12:33:59;;;;;;;;;;;;;;;24.51;44.89;102031.50;5115013;28;19935;-35
2022/08/30 12:36:32;;;;;;;;;;;;;;;24.35;45.40;102037.19;5114389;28;19956;-36